createdAt,value
2022-12-05T00:02:04.406Z,17.85
2022-12-05T00:04:32.823Z,16.83
2022-12-05T00:07:01.038Z,16.10
2022-12-05T00:09:29.267Z,17.42
2022-12-05T00:11:57.872Z,16.17
2022-12-05T00:14:27.647Z,14.35
2022-12-05T00:16:55.900Z,14.00
2022-12-05T00:19:24.299Z,14.68
2022-12-05T00:21:52.924Z,15.02
2022-12-05T00:24:21.786Z,15.13
2022-12-05T00:26:50.133Z,19.67
2022-12-05T00:29:18.370Z,16.95
2022-12-05T00:31:48.074Z,16.67
2022-12-05T00:34:16.373Z,15.40
2022-12-05T00:36:44.580Z,15.07
2022-12-05T00:39:14.320Z,10.52
2022-12-05T00:41:43.493Z,12.55
2022-12-05T00:44:13.318Z,12.27
2022-12-05T00:46:41.962Z,12.95
2022-12-05T00:49:12.937Z,13.98
2022-12-05T00:51:42.986Z,9.85
2022-12-05T00:54:13.350Z,14.70
2022-12-05T00:56:41.896Z,15.60
2022-12-05T00:59:13.800Z,11.65
2022-12-05T01:01:43.132Z,11.60
2022-12-05T01:04:15.072Z,9.90
2022-12-05T01:06:43.887Z,11.70
2022-12-05T01:09:14.747Z,13.95
2022-12-05T01:11:44.573Z,14.38
2022-12-05T01:14:14.519Z,11.80
2022-12-05T01:16:44.670Z,13.52
2022-12-05T01:19:16.379Z,14.05
2022-12-05T01:21:45.130Z,12.15
2022-12-05T01:24:13.608Z,15.02
2022-12-05T01:26:42.792Z,10.65
2022-12-05T01:29:11.546Z,12.63
2022-12-05T01:31:40.460Z,12.10
2022-12-05T01:34:11.483Z,16.77
2022-12-05T01:36:42.223Z,15.43
2022-12-05T01:39:11.900Z,13.25
2022-12-05T01:41:42.316Z,16.63
2022-12-05T01:44:49.276Z,16.75
2022-12-05T01:47:18.772Z,14.98
2022-12-05T01:49:47.209Z,13.02
2022-12-05T01:52:20.345Z,14.52
2022-12-05T01:54:51.389Z,18.27
2022-12-05T01:57:19.988Z,15.25
2022-12-05T01:59:52.922Z,18.05
2022-12-05T02:02:21.623Z,19.75
2022-12-05T02:04:58.620Z,17.10
2022-12-05T02:07:28.706Z,17.65
2022-12-05T02:09:57.379Z,17.70
2022-12-05T02:12:26.460Z,17.95
2022-12-05T02:15:05.932Z,14.43
2022-12-05T02:17:45.075Z,14.50
2022-12-05T02:20:36.690Z,17.20
2022-12-05T02:23:30.529Z,18.70
2022-12-05T02:26:33.065Z,20.30
2022-12-05T02:29:42.784Z,16.35
2022-12-05T02:32:17.082Z,22.75
2022-12-05T02:34:56.085Z,22.23
2022-12-05T02:37:31.055Z,21.35
2022-12-05T02:40:06.422Z,16.08
2022-12-05T02:42:42.345Z,15.45
2022-12-05T02:45:15.530Z,15.57
2022-12-05T02:47:46.889Z,14.25
2022-12-05T02:50:20.016Z,17.20
2022-12-05T02:52:50.019Z,17.10
2022-12-05T02:55:20.227Z,16.70
2022-12-05T02:57:54.169Z,16.60
2022-12-05T03:00:23.838Z,16.85
2022-12-05T03:02:55.700Z,19.15
2022-12-05T03:05:34.181Z,16.33
2022-12-05T03:08:05.893Z,14.82
2022-12-05T03:10:36.115Z,16.25
2022-12-05T03:13:08.789Z,13.30
2022-12-05T03:15:42.690Z,15.55
2022-12-05T03:18:17.012Z,19.70
2022-12-05T03:20:49.249Z,18.98
2022-12-05T03:23:22.217Z,17.30
2022-12-05T03:25:55.868Z,16.85
2022-12-05T03:28:30.881Z,17.88
2022-12-05T03:31:08.056Z,13.88
2022-12-05T03:33:42.017Z,18.63
2022-12-05T03:36:17.202Z,16.10
2022-12-05T03:38:50.620Z,20.48
2022-12-05T03:41:24.591Z,16.67
2022-12-05T03:43:58.005Z,14.13
2022-12-05T03:46:31.524Z,14.27
2022-12-05T03:49:06.136Z,15.77
2022-12-05T03:51:38.765Z,13.60
2022-12-05T03:54:11.670Z,16.42
2022-12-05T03:56:45.844Z,12.35
2022-12-05T03:59:19.539Z,14.57
2022-12-05T04:01:53.058Z,17.25
2022-12-05T04:04:28.172Z,14.63
2022-12-05T04:07:00.135Z,11.40
2022-12-05T04:09:32.642Z,12.30
2022-12-05T04:12:04.556Z,13.27
2022-12-05T04:14:37.130Z,13.15
2022-12-05T04:17:09.464Z,14.52
2022-12-05T04:20:00.231Z,16.25
2022-12-05T04:22:29.023Z,14.77
2022-12-05T04:25:16.678Z,13.30
2022-12-05T04:27:53.531Z,10.13
2022-12-05T04:30:23.822Z,14.23
2022-12-05T04:33:01.323Z,14.55
2022-12-05T04:35:32.350Z,17.27
2022-12-05T04:38:06.046Z,13.52
2022-12-05T04:40:39.569Z,13.75
2022-12-05T04:43:09.202Z,16.52
2022-12-05T04:45:39.246Z,13.82
2022-12-05T04:48:13.274Z,11.07
2022-12-05T04:50:43.567Z,15.23
2022-12-05T04:53:13.788Z,13.13
2022-12-05T04:55:47.111Z,11.43
2022-12-05T04:58:18.159Z,12.32
2022-12-05T05:00:51.970Z,10.52
2022-12-05T05:03:27.874Z,12.27
2022-12-05T05:05:57.836Z,10.52
2022-12-05T05:08:29.014Z,10.27
2022-12-05T05:11:07.889Z,10.43
2022-12-05T05:13:36.115Z,13.68
2022-12-05T05:16:04.887Z,11.90
2022-12-05T05:18:34.630Z,10.10
2022-12-05T05:21:02.748Z,12.82
2022-12-05T05:23:32.630Z,12.07
2022-12-05T05:26:00.995Z,10.07
2022-12-05T05:28:29.378Z,12.85
2022-12-05T05:31:03.135Z,11.82
2022-12-05T05:33:31.820Z,11.02
2022-12-05T05:36:05.714Z,10.40
2022-12-05T05:38:37.477Z,10.38
2022-12-05T05:41:06.447Z,11.45
2022-12-05T05:43:34.688Z,9.90
2022-12-05T05:46:05.337Z,10.38
2022-12-05T05:48:33.549Z,10.48
2022-12-05T05:51:02.329Z,9.38
2022-12-05T05:53:31.910Z,9.63
2022-12-05T05:56:03.913Z,8.50
2022-12-05T05:58:32.244Z,9.38
2022-12-05T06:01:04.714Z,8.65
2022-12-05T06:03:33.014Z,9.50
2022-12-05T06:06:03.856Z,8.75
2022-12-05T06:08:34.313Z,10.02
2022-12-05T06:11:08.002Z,10.10
2022-12-05T06:13:36.682Z,10.73
2022-12-05T06:16:07.622Z,9.55
2022-12-05T06:18:36.316Z,10.38
2022-12-05T06:21:05.792Z,9.20
2022-12-05T06:23:36.403Z,9.25
2022-12-05T06:26:06.083Z,8.30
2022-12-05T06:28:34.584Z,9.10
2022-12-05T06:31:08.912Z,9.98
2022-12-05T06:33:37.160Z,9.65
2022-12-05T06:36:07.471Z,10.93
2022-12-05T06:38:41.797Z,8.95
2022-12-05T06:41:13.080Z,10.27
2022-12-05T06:43:41.163Z,11.23
2022-12-05T06:46:10.585Z,8.93
2022-12-05T06:48:38.994Z,9.00
2022-12-05T06:51:10.072Z,11.38
2022-12-05T06:53:39.595Z,9.63
2022-12-05T06:56:12.576Z,9.57
2022-12-05T06:58:40.942Z,9.85
2022-12-05T07:01:30.746Z,10.93
2022-12-05T07:03:59.576Z,8.63
2022-12-05T07:06:28.889Z,9.90
2022-12-05T07:08:58.695Z,10.32
2022-12-05T07:11:28.116Z,10.23
2022-12-05T07:13:56.520Z,10.38
2022-12-05T07:16:25.512Z,11.30
2022-12-05T07:18:53.852Z,9.73
2022-12-05T07:21:22.679Z,9.52
2022-12-05T07:23:51.328Z,9.52
2022-12-05T07:26:23.014Z,9.90
2022-12-05T07:28:52.316Z,8.80
2022-12-05T07:31:23.367Z,8.93
2022-12-05T07:33:52.133Z,12.18
2022-12-05T07:36:23.802Z,12.18
2022-12-05T07:38:57.234Z,9.40
2022-12-05T07:41:28.297Z,10.40
2022-12-05T07:43:58.665Z,10.35
2022-12-05T07:46:29.166Z,9.20
2022-12-05T07:48:57.773Z,8.80
2022-12-05T07:51:26.151Z,10.02
2022-12-05T07:53:54.593Z,10.40
2022-12-05T07:56:23.594Z,10.13
2022-12-05T07:58:54.237Z,9.80
2022-12-05T08:01:24.819Z,8.90
2022-12-05T08:03:55.416Z,9.00
2022-12-05T08:06:25.937Z,8.13
2022-12-05T08:08:55.660Z,10.43
2022-12-05T08:11:25.786Z,8.20
2022-12-05T08:13:56.508Z,9.70
2022-12-05T08:16:27.345Z,9.23
2022-12-05T08:18:57.088Z,9.30
2022-12-05T08:21:26.357Z,9.55
2022-12-05T08:23:55.101Z,9.38
2022-12-05T08:26:25.838Z,10.20
2022-12-05T08:28:56.889Z,9.48
2022-12-05T08:31:28.816Z,9.15
2022-12-05T08:33:59.522Z,8.68
2022-12-05T08:36:28.982Z,9.65
2022-12-05T08:38:58.880Z,9.25
2022-12-05T08:41:30.055Z,10.35
2022-12-05T08:44:01.456Z,9.65
2022-12-05T08:46:30.134Z,9.63
2022-12-05T08:48:58.523Z,9.48
2022-12-05T08:51:26.858Z,9.20
2022-12-05T08:53:56.416Z,9.55
2022-12-05T08:56:27.424Z,9.40
2022-12-05T08:59:03.000Z,9.35
2022-12-05T09:01:38.930Z,9.35
2022-12-05T09:04:10.300Z,9.70
2022-12-05T09:06:39.540Z,10.60
2022-12-05T09:09:11.849Z,10.30
2022-12-05T09:11:46.222Z,9.40
2022-12-05T09:14:14.941Z,9.27
2022-12-05T09:16:46.104Z,10.93
2022-12-05T09:19:16.814Z,9.40
2022-12-05T09:21:45.189Z,9.60
2022-12-05T09:24:14.293Z,10.00
2022-12-05T09:26:43.370Z,11.35
2022-12-05T09:29:16.804Z,9.10
2022-12-05T09:31:48.844Z,8.63
2022-12-05T09:34:18.386Z,9.45
2022-12-05T09:36:49.823Z,9.67
2022-12-05T09:39:17.961Z,9.32
2022-12-05T09:42:06.002Z,9.63
2022-12-05T09:44:46.233Z,10.32
2022-12-05T09:47:25.427Z,9.80
2022-12-05T09:49:57.921Z,9.93
2022-12-05T09:52:29.682Z,9.80
2022-12-05T09:55:03.118Z,9.20
2022-12-05T09:57:36.451Z,9.23
2022-12-05T10:00:07.298Z,8.80
2022-12-05T10:02:45.303Z,8.30
2022-12-05T10:05:23.526Z,8.60
2022-12-05T10:07:58.493Z,7.53
2022-12-05T10:10:34.745Z,7.60
2022-12-05T10:13:33.386Z,8.55
2022-12-05T10:16:07.725Z,9.52
2022-12-05T10:18:41.740Z,8.07
2022-12-05T10:21:18.020Z,8.98
2022-12-05T10:23:57.873Z,8.77
2022-12-05T10:26:31.492Z,8.35
2022-12-05T10:29:10.636Z,8.80
2022-12-05T10:31:41.136Z,9.17
2022-12-05T10:34:18.099Z,8.87
2022-12-05T10:36:55.096Z,9.17
2022-12-05T10:39:24.100Z,9.10
2022-12-05T10:41:52.885Z,9.30
2022-12-05T10:44:21.731Z,9.60
2022-12-05T10:46:50.466Z,7.50
2022-12-05T10:49:21.816Z,7.27
2022-12-05T10:51:51.617Z,6.95
2022-12-05T10:54:24.915Z,6.60
2022-12-05T10:56:54.493Z,6.80
2022-12-05T10:59:24.886Z,6.63
2022-12-05T11:01:56.233Z,6.10
2022-12-05T11:04:30.106Z,6.03
2022-12-05T11:07:01.170Z,5.10
2022-12-05T11:09:32.774Z,6.18
2022-12-05T11:12:23.098Z,6.25
2022-12-05T11:15:01.523Z,6.23
2022-12-05T11:17:34.735Z,6.60
2022-12-05T11:20:25.891Z,5.50
2022-12-05T11:22:59.682Z,6.20
2022-12-05T11:25:34.671Z,7.03
2022-12-05T11:28:30.686Z,6.00
2022-12-05T11:31:00.737Z,5.85
2022-12-05T11:33:30.487Z,5.80
2022-12-05T11:36:05.572Z,5.30
2022-12-05T11:38:34.962Z,6.30
2022-12-05T11:41:22.324Z,5.40
2022-12-05T11:44:16.021Z,6.60
2022-12-05T11:46:58.220Z,5.85
2022-12-05T11:49:53.674Z,5.40
2022-12-05T11:52:37.480Z,5.77
2022-12-05T11:55:17.634Z,5.57
2022-12-05T11:58:17.648Z,5.77
2022-12-05T12:00:57.937Z,5.63
2022-12-05T12:03:49.960Z,5.15
2022-12-05T12:06:28.402Z,5.70
2022-12-05T12:09:12.928Z,4.70
2022-12-05T12:11:47.605Z,5.90
2022-12-05T12:14:21.620Z,5.80
2022-12-05T12:17:02.158Z,5.87
2022-12-05T12:19:44.548Z,5.25
2022-12-05T12:22:30.910Z,6.67
2022-12-05T12:25:14.931Z,5.83
2022-12-05T12:27:54.433Z,6.63
2022-12-05T12:30:29.600Z,5.70
2022-12-05T12:33:06.778Z,5.40
2022-12-05T12:35:45.058Z,5.50
2022-12-05T12:38:40.876Z,5.97
2022-12-05T12:41:20.175Z,5.50
2022-12-05T12:44:02.147Z,5.70
2022-12-05T12:46:40.347Z,5.80
2022-12-05T12:49:28.128Z,5.63
2022-12-05T12:52:02.858Z,5.80
2022-12-05T12:55:05.564Z,5.77
2022-12-05T12:57:53.496Z,4.50
2022-12-05T13:00:28.128Z,5.03
2022-12-05T13:03:01.530Z,4.83
2022-12-05T13:05:36.110Z,5.30
2022-12-05T13:08:08.580Z,4.70
2022-12-05T13:10:40.793Z,4.35
2022-12-05T13:13:17.340Z,6.10
2022-12-05T13:15:48.950Z,4.53
2022-12-05T13:18:19.987Z,5.07
2022-12-05T13:20:50.795Z,5.20
2022-12-05T13:23:24.306Z,4.70
2022-12-05T13:25:54.516Z,4.57
2022-12-05T13:28:30.295Z,5.00
2022-12-05T13:31:02.009Z,4.80
2022-12-05T13:33:34.503Z,4.40
2022-12-05T13:36:27.116Z,4.50
2022-12-05T13:39:21.713Z,5.13
2022-12-05T13:42:10.616Z,4.70
2022-12-05T13:44:43.914Z,4.67
2022-12-05T13:47:29.948Z,5.00
2022-12-05T13:50:03.998Z,4.53
2022-12-05T13:52:39.822Z,4.47
2022-12-05T13:55:21.301Z,4.37
2022-12-05T13:57:55.356Z,4.63
2022-12-05T14:00:31.084Z,4.93
2022-12-05T14:03:07.926Z,3.77
2022-12-05T14:05:48.568Z,4.67
2022-12-05T14:09:04.796Z,4.53
2022-12-05T14:11:33.000Z,3.50
2022-12-05T14:14:04.856Z,3.93
2022-12-05T14:16:47.203Z,4.30
2022-12-05T14:19:44.777Z,2.83
2022-12-05T14:22:33.587Z,2.40
2022-12-05T14:25:10.586Z,5.33
2022-12-05T14:27:50.616Z,2.83
2022-12-05T14:30:25.071Z,3.20
2022-12-05T14:32:55.915Z,2.83
2022-12-05T14:35:29.708Z,2.53
2022-12-05T14:38:00.156Z,3.23
2022-12-05T14:40:33.729Z,2.80
2022-12-05T14:43:05.067Z,2.77
2022-12-05T14:45:36.500Z,2.40
2022-12-05T14:48:23.648Z,5.97
2022-12-05T14:50:53.608Z,2.90
2022-12-05T14:53:46.857Z,3.47
2022-12-05T14:56:19.533Z,2.83
2022-12-05T14:58:53.166Z,2.80
2022-12-05T15:01:24.503Z,3.57
2022-12-05T15:04:10.864Z,2.70
2022-12-05T15:06:49.163Z,3.30
2022-12-05T15:09:38.933Z,4.03
2022-12-05T15:12:15.846Z,4.57
2022-12-05T15:14:55.075Z,3.53
2022-12-05T15:17:28.218Z,2.73
2022-12-05T15:20:05.136Z,3.40
2022-12-05T15:22:37.650Z,2.70
2022-12-05T15:25:29.350Z,4.00
2022-12-05T15:28:01.855Z,3.23
2022-12-05T15:30:32.643Z,2.90
2022-12-05T15:33:00.970Z,2.93
2022-12-05T15:35:33.911Z,2.90
2022-12-05T15:38:06.355Z,3.03
2022-12-05T15:40:37.924Z,3.20
2022-12-05T15:43:29.765Z,3.70
2022-12-05T15:46:20.832Z,3.03
2022-12-05T15:48:49.068Z,3.40
2022-12-05T15:51:19.686Z,3.80
2022-12-05T15:53:52.804Z,2.90
2022-12-05T15:56:25.388Z,2.90
2022-12-05T15:58:57.653Z,3.40
2022-12-05T16:01:27.491Z,3.40
2022-12-05T16:03:58.515Z,2.90
2022-12-05T16:06:32.174Z,5.03
2022-12-05T16:09:02.762Z,3.90
2022-12-05T16:11:31.269Z,4.03
2022-12-05T16:14:04.013Z,4.73
2022-12-05T16:16:36.156Z,4.03
2022-12-05T16:19:06.948Z,3.70
2022-12-05T16:21:39.413Z,3.77
2022-12-05T16:24:15.220Z,3.63
2022-12-05T16:26:43.912Z,4.00
2022-12-05T16:29:28.333Z,4.30
2022-12-05T16:31:57.926Z,3.72
2022-12-05T16:34:27.734Z,3.58
2022-12-05T16:36:58.813Z,3.90
2022-12-05T16:39:29.426Z,4.07
2022-12-05T16:41:58.453Z,6.47
2022-12-05T16:45:03.850Z,6.17
2022-12-05T16:47:56.279Z,6.10
2022-12-05T16:50:31.472Z,6.00
2022-12-05T16:53:15.641Z,6.20
2022-12-05T16:55:45.884Z,5.97
2022-12-05T16:58:21.186Z,6.93
2022-12-05T17:00:49.524Z,5.38
2022-12-05T17:03:34.004Z,5.97
2022-12-05T17:06:03.725Z,6.33
2022-12-05T17:08:33.473Z,5.55
2022-12-05T17:11:03.830Z,6.22
2022-12-05T17:13:34.014Z,6.37
2022-12-05T17:16:02.344Z,6.80
2022-12-05T17:18:32.002Z,9.43
2022-12-05T17:21:03.286Z,8.87
2022-12-05T17:23:33.160Z,8.77
2022-12-05T17:26:01.491Z,8.00
2022-12-05T17:28:29.726Z,10.50
2022-12-05T17:30:58.394Z,7.90
2022-12-05T17:33:26.709Z,9.90
2022-12-05T17:35:54.973Z,10.27
2022-12-05T17:38:23.457Z,8.77
2022-12-05T17:40:53.302Z,8.60
2022-12-05T17:43:25.103Z,10.43
2022-12-05T17:45:54.891Z,8.40
2022-12-05T17:48:23.605Z,8.27
2022-12-05T17:50:52.247Z,13.20
2022-12-05T17:53:23.463Z,9.60
2022-12-05T17:55:53.088Z,9.03
2022-12-05T17:58:21.384Z,8.05
2022-12-05T18:00:50.150Z,7.03
2022-12-05T18:03:20.588Z,6.67
2022-12-05T18:05:48.953Z,10.80
2022-12-05T18:08:18.291Z,9.20
2022-12-05T18:10:48.538Z,9.73
2022-12-05T18:13:19.329Z,7.30
2022-12-05T18:15:50.007Z,5.60
2022-12-05T18:18:19.553Z,5.90
2022-12-05T18:20:48.300Z,5.75
2022-12-05T18:23:16.716Z,6.10
2022-12-05T18:25:47.153Z,5.80
2022-12-05T18:28:18.007Z,5.53
2022-12-05T18:30:50.475Z,5.77
2022-12-05T18:33:18.800Z,7.80
2022-12-05T18:35:47.082Z,6.57
2022-12-05T18:38:15.280Z,6.17
2022-12-05T18:40:43.529Z,5.63
2022-12-05T18:43:11.827Z,6.43
2022-12-05T18:45:40.304Z,6.97
2022-12-05T18:48:23.793Z,7.90
2022-12-05T18:51:08.294Z,6.43
2022-12-05T18:53:36.760Z,6.95
2022-12-05T18:56:22.162Z,10.57
2022-12-05T18:58:56.819Z,10.00
2022-12-05T19:01:25.749Z,9.60
2022-12-05T19:03:56.138Z,9.20
2022-12-05T19:06:26.412Z,9.35
2022-12-05T19:08:56.762Z,11.03
2022-12-05T19:11:27.439Z,7.67
2022-12-05T19:13:59.017Z,8.02
2022-12-05T19:16:31.156Z,12.90
2022-12-05T19:19:03.430Z,9.80
2022-12-05T19:21:34.032Z,9.43
2022-12-05T19:24:05.780Z,8.60
2022-12-05T19:26:36.394Z,7.63
2022-12-05T19:29:05.451Z,7.97
2022-12-05T19:31:36.213Z,7.90
2022-12-05T19:34:09.125Z,8.70
2022-12-05T19:36:40.041Z,12.70
2022-12-05T19:39:11.078Z,11.40
2022-12-05T19:41:40.903Z,10.53
2022-12-05T19:44:12.815Z,9.37
2022-12-05T19:46:43.952Z,10.10
2022-12-05T19:49:17.735Z,8.53
2022-12-05T19:51:49.407Z,9.43
2022-12-05T19:54:19.865Z,8.07
2022-12-05T19:56:48.146Z,8.32
2022-12-05T19:59:17.305Z,8.93
2022-12-05T20:01:45.939Z,10.97
2022-12-05T20:04:17.436Z,8.93
2022-12-05T20:06:47.561Z,7.60
2022-12-05T20:09:18.331Z,7.70
2022-12-05T20:11:54.718Z,11.50
2022-12-05T20:14:24.714Z,14.17
2022-12-05T20:16:54.290Z,12.03
2022-12-05T20:19:24.399Z,11.07
2022-12-05T20:21:52.556Z,9.50
2022-12-05T20:24:20.903Z,8.77
2022-12-05T20:26:49.245Z,9.47
2022-12-05T20:29:17.603Z,9.17
2022-12-05T20:31:46.219Z,11.68
2022-12-05T20:34:15.873Z,15.77
2022-12-05T20:36:45.685Z,18.33
2022-12-05T20:39:16.651Z,17.07
2022-12-05T20:41:45.548Z,10.03
2022-12-05T20:44:16.555Z,9.00
2022-12-05T20:46:45.020Z,9.02
2022-12-05T20:49:14.128Z,10.00
2022-12-05T20:51:44.070Z,10.10
2022-12-05T20:54:18.603Z,10.40
2022-12-05T20:56:48.811Z,9.67
2022-12-05T20:59:17.317Z,10.30
2022-12-05T21:01:47.136Z,8.83
2022-12-05T21:04:15.649Z,8.93
2022-12-05T21:06:46.015Z,8.13
2022-12-05T21:09:26.983Z,8.20
2022-12-05T21:11:55.652Z,8.07
2022-12-05T21:14:23.986Z,8.85
2022-12-05T21:16:53.393Z,7.57
2022-12-05T21:19:22.454Z,8.27
2022-12-05T21:21:50.577Z,8.60
2022-12-05T21:24:20.527Z,8.20
2022-12-05T21:26:50.672Z,8.63
2022-12-05T21:29:19.385Z,8.55
2022-12-05T21:31:47.916Z,10.10
2022-12-05T21:34:20.388Z,8.05
2022-12-05T21:36:48.865Z,7.15
2022-12-05T21:39:17.438Z,8.50
2022-12-05T21:41:46.964Z,8.68
2022-12-05T21:44:16.082Z,7.57
2022-12-05T21:46:44.646Z,7.50
2022-12-05T21:49:13.011Z,8.52
2022-12-05T21:51:41.436Z,8.02
2022-12-05T21:54:09.849Z,8.52
2022-12-05T21:56:39.002Z,8.48
2022-12-05T21:59:08.731Z,9.00
2022-12-05T22:01:37.196Z,10.13
2022-12-05T22:04:05.763Z,8.30
2022-12-05T22:06:35.917Z,8.00
2022-12-05T22:09:05.987Z,9.57
2022-12-05T22:11:34.280Z,7.75
2022-12-05T22:14:02.490Z,7.50
2022-12-05T22:16:33.451Z,8.07
2022-12-05T22:19:02.539Z,7.65
2022-12-05T22:21:34.036Z,9.38
2022-12-05T22:24:02.984Z,8.07
2022-12-05T22:26:31.498Z,7.55
2022-12-05T22:28:59.871Z,8.50
2022-12-05T22:31:28.492Z,8.10
2022-12-05T22:33:58.370Z,8.00
2022-12-05T22:36:26.652Z,9.35
2022-12-05T22:38:54.925Z,7.72
2022-12-05T22:41:25.463Z,7.55
2022-12-05T22:43:57.752Z,8.70
2022-12-05T22:46:27.455Z,8.52
2022-12-05T22:48:57.301Z,7.97
2022-12-05T22:51:27.531Z,7.45
2022-12-05T22:53:55.818Z,6.47
2022-12-05T22:56:26.189Z,8.15
2022-12-05T22:58:55.344Z,13.77
2022-12-05T23:01:26.225Z,11.60
2022-12-05T23:03:58.978Z,9.65
2022-12-05T23:06:29.085Z,6.80
2022-12-05T23:08:58.016Z,9.32
2022-12-05T23:11:27.374Z,8.02
2022-12-05T23:14:01.363Z,7.00
2022-12-05T23:16:32.217Z,7.40
2022-12-05T23:19:04.342Z,7.63
2022-12-05T23:21:34.859Z,8.20
2022-12-05T23:24:05.557Z,7.57
2022-12-05T23:26:36.696Z,7.60
2022-12-05T23:29:06.485Z,7.57
2022-12-05T23:31:35.221Z,8.03
2022-12-05T23:34:05.355Z,7.10
2022-12-05T23:36:35.295Z,7.65
2022-12-05T23:39:04.391Z,7.15
2022-12-05T23:41:33.202Z,6.60
2022-12-05T23:44:02.015Z,6.50
2022-12-05T23:46:30.907Z,5.72
2022-12-05T23:49:00.334Z,5.87
2022-12-05T23:51:31.845Z,6.13
2022-12-05T23:54:02.121Z,5.25
2022-12-05T23:56:32.645Z,5.85
2022-12-05T23:59:03.114Z,5.30
